createdAt,value
2022-12-18T00:02:39.209Z,60.05
2022-12-18T00:05:51.573Z,59.39
2022-12-18T00:08:59.885Z,59.69
2022-12-18T00:15:24.664Z,60.41
2022-12-18T00:18:30.082Z,59.93
2022-12-18T00:21:38.122Z,59.70
2022-12-18T00:24:44.351Z,59.22
2022-12-18T00:27:50.805Z,59.13
2022-12-18T00:31:05.020Z,59.62
2022-12-18T00:34:15.256Z,59.53
2022-12-18T00:37:20.751Z,59.58
2022-12-18T00:40:30.867Z,59.23
2022-12-18T00:43:33.802Z,59.70
2022-12-18T00:46:43.540Z,59.42
2022-12-18T00:49:49.269Z,58.94
2022-12-18T00:52:55.899Z,58.81
2022-12-18T00:56:01.511Z,59.03
2022-12-18T00:59:08.417Z,60.35
2022-12-18T01:02:17.695Z,59.78
2022-12-18T01:05:24.309Z,59.24
2022-12-18T01:08:30.875Z,59.70
2022-12-18T01:11:37.087Z,59.07
2022-12-18T01:14:43.307Z,58.85
2022-12-18T01:17:52.127Z,59.99
2022-12-18T01:20:58.129Z,58.80
2022-12-18T01:24:04.474Z,58.41
2022-12-18T01:27:10.099Z,57.55
2022-12-18T01:30:16.960Z,57.09
2022-12-18T01:33:25.037Z,57.24
2022-12-18T01:36:34.689Z,56.54
2022-12-18T01:39:40.474Z,56.53
2022-12-18T01:42:46.859Z,57.14
2022-12-18T01:45:52.557Z,56.85
2022-12-18T01:49:05.882Z,56.95
2022-12-18T01:52:11.491Z,56.42
2022-12-18T01:55:26.498Z,56.09
2022-12-18T01:58:48.190Z,56.83
2022-12-18T02:01:55.116Z,56.41
2022-12-18T02:05:04.085Z,56.59
2022-12-18T02:08:24.446Z,57.43
2022-12-18T02:11:51.418Z,57.66
2022-12-18T02:15:11.200Z,57.46
2022-12-18T02:18:27.743Z,57.52
2022-12-18T02:21:59.007Z,57.08
2022-12-18T02:25:27.960Z,56.59
2022-12-18T02:28:46.423Z,57.24
2022-12-18T02:32:01.132Z,57.65
2022-12-18T02:35:13.623Z,57.13
2022-12-18T02:38:22.015Z,57.12
2022-12-18T02:41:35.017Z,57.53
2022-12-18T02:44:52.668Z,57.55
2022-12-18T02:48:03.170Z,57.04
2022-12-18T02:51:27.927Z,58.06
2022-12-18T02:55:04.031Z,57.36
2022-12-18T02:58:23.735Z,57.42
2022-12-18T03:01:47.322Z,57.37
2022-12-18T03:05:03.328Z,57.58
2022-12-18T03:08:21.007Z,56.44
2022-12-18T03:11:46.329Z,57.91
2022-12-18T03:15:02.022Z,57.79
2022-12-18T03:18:19.414Z,57.91
2022-12-18T03:21:33.900Z,57.98
2022-12-18T03:24:42.195Z,57.13
2022-12-18T03:27:58.185Z,57.67
2022-12-18T03:31:11.473Z,59.49
2022-12-18T03:34:30.588Z,59.66
2022-12-18T03:37:43.927Z,58.09
2022-12-18T03:41:10.175Z,58.19
2022-12-18T03:44:40.388Z,58.50
2022-12-18T03:48:05.282Z,57.77
2022-12-18T03:51:31.269Z,57.90
2022-12-18T03:54:43.619Z,56.73
2022-12-18T03:57:57.767Z,56.34
2022-12-18T04:01:16.647Z,56.56
2022-12-18T04:04:30.724Z,56.75
2022-12-18T04:07:44.373Z,58.30
2022-12-18T04:10:50.514Z,56.54
2022-12-18T04:14:01.937Z,56.86
2022-12-18T04:17:10.695Z,58.72
2022-12-18T04:20:17.401Z,58.51
2022-12-18T04:23:26.603Z,56.93
2022-12-18T04:26:36.572Z,56.95
2022-12-18T04:30:13.338Z,57.23
2022-12-18T04:33:25.071Z,56.83
2022-12-18T04:36:30.781Z,57.11
2022-12-18T04:39:39.883Z,57.09
2022-12-18T04:42:55.937Z,58.13
2022-12-18T04:46:07.385Z,58.79
2022-12-18T04:49:13.592Z,57.24
2022-12-18T04:52:20.384Z,56.89
2022-12-18T04:55:35.450Z,57.38
2022-12-18T04:58:43.977Z,56.93
2022-12-18T05:01:49.725Z,58.05
2022-12-18T05:04:56.173Z,57.63
2022-12-18T05:08:01.723Z,57.26
2022-12-18T05:11:16.032Z,56.88
2022-12-18T05:14:21.655Z,57.83
2022-12-18T05:17:28.093Z,58.09
2022-12-18T05:20:34.443Z,57.27
2022-12-18T05:23:41.617Z,58.09
2022-12-18T05:26:50.153Z,59.49
2022-12-18T05:29:56.513Z,58.67
2022-12-18T05:33:01.998Z,57.50
2022-12-18T05:36:12.525Z,58.08
2022-12-18T05:39:18.332Z,58.66
2022-12-18T05:42:27.376Z,59.01
2022-12-18T05:45:33.339Z,58.60
2022-12-18T05:48:39.756Z,57.81
2022-12-18T05:51:45.204Z,57.18
2022-12-18T05:54:51.453Z,57.70
2022-12-18T05:57:59.571Z,59.47
2022-12-18T06:01:14.260Z,59.01
2022-12-18T06:04:19.977Z,59.42
2022-12-18T06:07:26.268Z,57.77
2022-12-18T06:10:31.684Z,57.20
2022-12-18T06:13:41.351Z,57.46
2022-12-18T06:16:47.850Z,57.93
2022-12-18T06:19:54.113Z,58.03
2022-12-18T06:22:59.684Z,58.65
2022-12-18T06:26:09.232Z,57.52
2022-12-18T06:29:17.323Z,58.73
2022-12-18T06:32:23.874Z,58.68
2022-12-18T06:35:29.393Z,58.40
2022-12-18T06:38:36.369Z,57.61
2022-12-18T06:41:42.150Z,57.29
2022-12-18T06:44:51.188Z,58.82
2022-12-18T06:47:57.642Z,58.57
2022-12-18T06:51:05.788Z,57.49
2022-12-18T06:54:11.844Z,57.49
2022-12-18T06:57:18.171Z,56.84
2022-12-18T07:00:26.345Z,57.82
2022-12-18T07:03:33.086Z,58.12
2022-12-18T07:06:38.769Z,57.36
2022-12-18T07:09:45.066Z,57.79
2022-12-18T07:12:50.552Z,58.22
2022-12-18T07:15:59.505Z,57.88
2022-12-18T07:19:04.993Z,57.58
2022-12-18T07:22:11.283Z,58.13
2022-12-18T07:25:16.887Z,57.84
2022-12-18T07:28:23.304Z,57.76
2022-12-18T07:31:32.529Z,58.70
2022-12-18T07:34:39.349Z,58.14
2022-12-18T07:37:44.754Z,57.66
2022-12-18T07:40:55.976Z,58.46
2022-12-18T07:44:01.373Z,58.16
2022-12-18T07:47:12.345Z,57.59
2022-12-18T07:50:18.446Z,57.86
2022-12-18T07:53:24.730Z,58.25
2022-12-18T07:56:31.422Z,58.82
2022-12-18T07:59:37.983Z,57.48
2022-12-18T08:02:46.181Z,57.56
2022-12-18T08:05:52.612Z,57.57
2022-12-18T08:08:59.876Z,57.83
2022-12-18T08:12:07.370Z,57.11
2022-12-18T08:15:22.266Z,55.94
2022-12-18T08:18:31.911Z,54.68
2022-12-18T08:21:37.499Z,55.10
2022-12-18T08:24:43.903Z,54.46
2022-12-18T08:27:51.779Z,54.96
2022-12-18T08:30:58.233Z,55.99
2022-12-18T08:34:06.427Z,55.29
2022-12-18T08:37:12.911Z,55.39
2022-12-18T08:40:18.648Z,55.36
2022-12-18T08:43:37.650Z,55.38
2022-12-18T08:46:49.236Z,55.46
2022-12-18T08:50:00.442Z,55.28
2022-12-18T08:53:07.339Z,55.33
2022-12-18T08:56:15.865Z,56.05
2022-12-18T08:59:24.381Z,56.36
2022-12-18T09:02:32.231Z,56.40
2022-12-18T09:05:41.623Z,55.40
2022-12-18T09:08:56.020Z,55.68
2022-12-18T09:12:01.487Z,55.88
2022-12-18T09:15:13.022Z,55.22
2022-12-18T09:18:23.005Z,55.01
2022-12-18T09:21:37.693Z,54.91
2022-12-18T09:24:43.695Z,54.32
2022-12-18T09:27:51.810Z,55.17
2022-12-18T09:31:00.355Z,54.85
2022-12-18T09:34:07.223Z,54.47
2022-12-18T09:37:15.553Z,54.17
2022-12-18T09:40:27.476Z,53.76
2022-12-18T09:43:45.425Z,53.95
2022-12-18T09:47:07.735Z,53.62
2022-12-18T09:50:31.074Z,52.97
2022-12-18T09:53:48.701Z,53.74
2022-12-18T09:56:54.353Z,54.18
2022-12-18T10:00:10.953Z,53.85
2022-12-18T10:03:24.425Z,53.53
2022-12-18T10:06:50.145Z,52.72
2022-12-18T10:10:18.384Z,52.58
2022-12-18T10:13:37.560Z,51.76
2022-12-18T10:17:03.566Z,53.03
2022-12-18T10:20:24.851Z,52.60
2022-12-18T10:23:49.315Z,51.99
2022-12-18T10:27:16.296Z,51.56
2022-12-18T10:30:25.794Z,50.99
2022-12-18T10:33:37.032Z,51.56
2022-12-18T10:36:43.275Z,50.48
2022-12-18T10:39:50.392Z,52.71
2022-12-18T10:43:09.799Z,51.91
2022-12-18T10:46:21.847Z,51.42
2022-12-18T10:49:31.952Z,52.78
2022-12-18T10:52:43.544Z,52.44
2022-12-18T10:55:51.686Z,51.54
2022-12-18T10:59:08.879Z,50.68
2022-12-18T11:02:37.589Z,49.27
2022-12-18T11:05:44.238Z,48.74
2022-12-18T11:09:12.301Z,48.38
2022-12-18T11:12:23.938Z,48.37
2022-12-18T11:15:34.954Z,47.72
2022-12-18T11:18:41.840Z,47.02
2022-12-18T11:21:47.877Z,46.13
2022-12-18T11:25:30.937Z,46.91
2022-12-18T11:28:42.246Z,43.93
2022-12-18T11:31:51.550Z,45.01
2022-12-18T11:35:07.808Z,47.22
2022-12-18T11:38:28.040Z,47.03
2022-12-18T11:42:00.098Z,47.75
2022-12-18T11:45:32.657Z,46.90
2022-12-18T11:48:53.109Z,46.39
2022-12-18T11:52:16.505Z,47.96
2022-12-18T11:55:42.551Z,47.10
2022-12-18T11:59:01.455Z,47.41
2022-12-18T12:02:41.279Z,47.30
2022-12-18T12:06:15.823Z,46.75
2022-12-18T12:09:41.518Z,46.32
2022-12-18T12:13:13.106Z,47.29
2022-12-18T12:16:30.568Z,47.19
2022-12-18T12:19:55.459Z,47.15
2022-12-18T12:23:23.529Z,46.90
2022-12-18T12:26:50.598Z,49.46
2022-12-18T12:30:22.448Z,50.25
2022-12-18T12:33:47.424Z,48.92
2022-12-18T12:37:19.298Z,49.73
2022-12-18T12:40:52.464Z,50.91
2022-12-18T12:44:07.741Z,51.78
2022-12-18T12:47:30.507Z,51.12
2022-12-18T12:50:40.076Z,50.78
2022-12-18T12:53:47.032Z,52.61
2022-12-18T12:57:10.062Z,52.19
2022-12-18T13:00:25.282Z,52.64
2022-12-18T13:03:51.722Z,53.44
2022-12-18T13:07:10.687Z,52.35
2022-12-18T13:10:34.881Z,53.41
2022-12-18T13:13:57.417Z,53.29
2022-12-18T13:17:34.755Z,52.83
2022-12-18T13:20:52.496Z,54.11
2022-12-18T13:24:18.193Z,52.43
2022-12-18T13:28:03.684Z,53.52
2022-12-18T13:31:11.807Z,53.01
2022-12-18T13:34:26.855Z,53.87
2022-12-18T13:37:57.436Z,53.55
2022-12-18T13:41:06.821Z,52.31
2022-12-18T13:44:29.335Z,53.05
2022-12-18T13:47:42.050Z,51.47
2022-12-18T13:50:53.385Z,53.20
2022-12-18T13:54:05.881Z,52.67
2022-12-18T13:57:32.661Z,53.64
2022-12-18T14:00:44.949Z,53.03
2022-12-18T14:03:54.444Z,52.33
2022-12-18T14:07:08.967Z,50.85
2022-12-18T14:10:50.436Z,51.36
2022-12-18T14:13:50.539Z,52.42
2022-12-18T14:16:57.506Z,52.70
2022-12-18T14:20:08.143Z,52.44
2022-12-18T14:23:31.358Z,53.22
2022-12-18T14:26:39.094Z,53.24
2022-12-18T14:29:48.794Z,52.94
2022-12-18T14:33:05.602Z,53.46
2022-12-18T14:36:25.049Z,53.52
2022-12-18T14:39:33.243Z,53.87
2022-12-18T14:42:40.520Z,53.56
2022-12-18T14:45:50.794Z,54.37
2022-12-18T14:48:58.356Z,53.79
2022-12-18T14:52:26.108Z,54.22
2022-12-18T14:55:36.499Z,53.66
2022-12-18T14:58:54.472Z,52.54
2022-12-18T15:02:19.761Z,52.10
2022-12-18T15:05:33.300Z,51.75
2022-12-18T15:08:51.227Z,51.54
2022-12-18T15:12:04.136Z,51.77
2022-12-18T15:15:57.607Z,51.66
2022-12-18T15:19:07.663Z,51.37
2022-12-18T15:22:30.687Z,50.87
2022-12-18T15:25:47.676Z,51.18
2022-12-18T15:28:59.848Z,51.84
2022-12-18T15:32:23.635Z,51.22
2022-12-18T15:35:30.229Z,51.36
2022-12-18T15:38:39.735Z,52.51
2022-12-18T15:42:02.494Z,51.81
2022-12-18T15:45:19.493Z,52.27
2022-12-18T15:48:29.693Z,51.85
2022-12-18T15:51:40.497Z,51.24
2022-12-18T15:55:00.684Z,52.54
2022-12-18T15:58:12.800Z,53.39
2022-12-18T16:01:26.491Z,52.10
2022-12-18T16:04:35.566Z,52.13
2022-12-18T16:07:42.194Z,51.76
2022-12-18T16:10:49.729Z,51.39
2022-12-18T16:13:58.230Z,51.43
2022-12-18T16:17:09.191Z,52.05
2022-12-18T16:20:19.389Z,51.69
2022-12-18T16:23:32.502Z,50.80
2022-12-18T16:26:39.123Z,51.47
2022-12-18T16:29:52.117Z,51.94
2022-12-18T16:32:59.317Z,51.67
2022-12-18T16:36:09.053Z,53.20
2022-12-18T16:39:17.500Z,53.21
2022-12-18T16:42:26.466Z,53.88
2022-12-18T16:45:37.873Z,53.71
2022-12-18T16:48:47.953Z,53.16
2022-12-18T16:52:00.417Z,53.51
2022-12-18T16:55:10.957Z,53.21
2022-12-18T16:58:18.762Z,52.09
2022-12-18T17:01:35.273Z,52.26
2022-12-18T17:04:41.039Z,52.07
2022-12-18T17:07:47.659Z,52.62
2022-12-18T17:10:56.252Z,53.58
2022-12-18T17:14:08.992Z,54.17
2022-12-18T17:17:21.280Z,54.69
2022-12-18T17:20:28.463Z,55.70
2022-12-18T17:23:34.155Z,55.97
2022-12-18T17:26:40.955Z,56.33
2022-12-18T17:29:48.391Z,56.82
2022-12-18T17:32:57.914Z,56.76
2022-12-18T17:36:03.362Z,57.22
2022-12-18T17:39:11.089Z,57.61
2022-12-18T17:42:19.800Z,57.62
2022-12-18T17:45:26.328Z,57.71
2022-12-18T17:48:34.969Z,57.60
2022-12-18T17:51:43.199Z,58.09
2022-12-18T17:54:48.756Z,57.97
2022-12-18T17:57:55.589Z,57.58
2022-12-18T18:01:02.545Z,57.90
2022-12-18T18:04:14.119Z,57.82
2022-12-18T18:07:19.885Z,57.85
2022-12-18T18:10:26.446Z,57.71
2022-12-18T18:13:47.202Z,57.35
2022-12-18T18:16:55.410Z,56.87
2022-12-18T18:20:04.945Z,56.91
2022-12-18T18:23:11.652Z,56.42
2022-12-18T18:26:23.579Z,56.59
2022-12-18T18:29:35.050Z,56.53
2022-12-18T18:32:40.679Z,56.71
2022-12-18T18:35:54.585Z,56.98
2022-12-18T18:39:03.264Z,57.07
2022-12-18T18:42:10.798Z,57.04
2022-12-18T18:45:17.570Z,57.04
2022-12-18T18:48:23.835Z,56.88
2022-12-18T18:51:37.540Z,57.30
2022-12-18T18:55:03.549Z,57.10
2022-12-18T18:58:09.482Z,57.34
2022-12-18T19:01:19.904Z,56.75
2022-12-18T19:04:26.422Z,56.98
2022-12-18T19:07:35.995Z,56.83
2022-12-18T19:10:43.528Z,56.62
2022-12-18T19:13:47.184Z,56.88
2022-12-18T19:16:54.378Z,56.82
2022-12-18T19:20:02.334Z,56.66
2022-12-18T19:23:11.086Z,56.62
2022-12-18T19:26:34.748Z,56.93
2022-12-18T19:29:40.756Z,56.87
2022-12-18T19:32:47.393Z,56.82
2022-12-18T19:35:53.696Z,57.24
2022-12-18T19:39:05.383Z,56.98
2022-12-18T19:42:12.667Z,56.73
2022-12-18T19:45:20.360Z,56.99
2022-12-18T19:48:26.243Z,56.98
2022-12-18T19:51:34.811Z,56.79
2022-12-18T19:54:43.666Z,56.71
2022-12-18T19:57:50.318Z,56.96
2022-12-18T20:00:57.132Z,56.79
2022-12-18T20:04:06.766Z,57.00
2022-12-18T20:07:15.714Z,56.86
2022-12-18T20:10:24.842Z,56.77
2022-12-18T20:13:31.587Z,57.01
2022-12-18T20:16:39.384Z,56.76
2022-12-18T20:19:45.844Z,57.03
2022-12-18T20:22:56.959Z,57.02
2022-12-18T20:26:08.568Z,56.87
2022-12-18T20:29:15.414Z,57.02
2022-12-18T20:32:20.926Z,56.84
2022-12-18T20:35:31.251Z,57.10
2022-12-18T20:38:39.261Z,57.23
2022-12-18T20:41:49.710Z,57.00
2022-12-18T20:44:55.617Z,57.05
2022-12-18T20:48:02.479Z,57.08
2022-12-18T20:51:11.652Z,56.87
2022-12-18T20:54:18.718Z,56.87
2022-12-18T20:57:27.030Z,56.82
2022-12-18T21:00:33.357Z,56.57
2022-12-18T21:03:38.859Z,56.88
2022-12-18T21:06:49.375Z,57.17
2022-12-18T21:09:57.933Z,57.40
2022-12-18T21:13:08.634Z,57.16
2022-12-18T21:16:14.365Z,57.53
2022-12-18T21:19:23.826Z,57.37
2022-12-18T21:22:31.180Z,57.30
2022-12-18T21:25:37.584Z,57.26
2022-12-18T21:28:45.890Z,57.48
2022-12-18T21:31:54.575Z,57.24
2022-12-18T21:35:00.288Z,57.03
2022-12-18T21:38:06.856Z,56.81
2022-12-18T21:41:40.326Z,57.18
2022-12-18T21:44:49.809Z,57.22
2022-12-18T21:47:56.066Z,57.68
2022-12-18T21:51:03.104Z,58.55
2022-12-18T21:54:10.673Z,58.56
2022-12-18T21:57:18.790Z,58.52
2022-12-18T22:00:28.371Z,59.05
2022-12-18T22:03:34.820Z,59.26
2022-12-18T22:06:42.890Z,59.04
2022-12-18T22:09:50.104Z,59.17
2022-12-18T22:12:55.655Z,59.38
2022-12-18T22:16:10.952Z,59.65
2022-12-18T22:19:17.802Z,59.83
2022-12-18T22:22:27.060Z,59.82
2022-12-18T22:25:33.161Z,59.79
2022-12-18T22:28:54.039Z,60.10
2022-12-18T22:32:02.514Z,60.37
2022-12-18T22:35:15.845Z,60.29
2022-12-18T22:38:21.627Z,60.03
2022-12-18T22:41:28.279Z,60.82
2022-12-18T22:44:36.564Z,59.98
2022-12-18T22:47:45.808Z,59.55
2022-12-18T22:50:51.557Z,59.52
2022-12-18T22:54:07.174Z,59.36
2022-12-18T22:57:13.254Z,58.72
2022-12-18T23:00:24.183Z,58.69
2022-12-18T23:03:35.719Z,58.62
2022-12-18T23:06:48.087Z,58.82
2022-12-18T23:10:00.936Z,58.58
2022-12-18T23:13:07.932Z,58.93
2022-12-18T23:16:18.031Z,58.70
2022-12-18T23:19:27.982Z,58.30
2022-12-18T23:22:33.513Z,58.64
2022-12-18T23:25:40.288Z,58.71
2022-12-18T23:28:46.736Z,58.63
2022-12-18T23:31:53.244Z,58.66
2022-12-18T23:35:01.407Z,58.05
2022-12-18T23:38:07.800Z,57.76
2022-12-18T23:41:18.459Z,57.67
2022-12-18T23:44:25.168Z,57.87
2022-12-18T23:47:30.734Z,57.82
2022-12-18T23:50:41.322Z,57.35
2022-12-18T23:53:47.812Z,57.81
2022-12-18T23:56:54.131Z,57.54
2022-12-18T23:59:59.635Z,57.64
